Ryuhomaru — JD2639 — position and weather

sailwx.info

Track history (hours):
 
Tides and Currents Weather Stations Pressure Air Temp Water Temp Dewpoint Dewpoint Depression Visibility Wind Speed Wind Dir Waves Ship Positions

Ryuhomaru

Last reported at 2015-Mar-02 07:13 UTC. Time now 2015-Mar-04 00:10 UTC.
Position N 34°33' E 135°27'.

Length 42 m; draft 3.5 m.

Type: Tug. MMSI: 431000586.

Date/timePositionNaut miles runAvg speedWind from/ knotsBaromVisibWave heightAir tempDewpointWater temp
2015-Mar-02 07:13N 34°33' E 135°27'0 0.0
2015-Mar-02 06:31N 34°33' E 135°27'0 0.0
2015-Mar-02 05:33N 34°33' E 135°27'0 0.0
2015-Mar-02 04:33N 34°33' E 135°27'0 0.0
2015-Mar-02 03:33N 34°33' E 135°27'0 0.0
2015-Mar-02 02:33N 34°33' E 135°27'0 0.2
2015-Mar-02 01:33N 34°33' E 135°26'2 1.7
2015-Mar-02 00:30N 34°34' E 135°24'2 2.4
2015-Mar-01 23:33N 34°36' E 135°24'1 0.6
2015-Mar-01 22:33N 34°35' E 135°24'3 2.4
2015-Mar-01 21:22N 34°33' E 135°25'1 1.1
2015-Mar-01 20:26N 34°33' E 135°27'0 0.0
2015-Mar-01 08:26N 34°33' E 135°27'2 2.5
2015-Mar-01 07:33N 34°34' E 135°24'0 0.2
2015-Mar-01 06:33N 34°34' E 135°24'2 0.5
2015-Mar-01 02:33N 34°33' E 135°27'3 2.5
2015-Mar-01 01:33N 34°32' E 135°24'0 0.4
2015-Mar-01 00:31N 34°32' E 135°24'2 1.8
2015-Feb-28 23:08N 34°33' E 135°27'0 0.0
2015-Feb-28 22:31N 34°33' E 135°27'0 0.0
2015-Feb-28 03:04N 34°33' E 135°27'2 3.3
2015-Feb-28 02:30N 34°34' E 135°24'0 0.0
2015-Feb-28 01:23N 34°34' E 135°24'4 4.3
2015-Feb-28 00:32N 34°33' E 135°20'0 0.1
2015-Feb-27 23:33N 34°33' E 135°20'5 4.6
2015-Feb-27 22:33N 34°33' E 135°26'0 0.3
2015-Feb-27 21:33N 34°33' E 135°26'1 0.7
2015-Feb-27 20:34N 34°33' E 135°27'2 0.1
2015-Feb-26 09:33N 34°34' E 135°24'5 4.6
2015-Feb-26 08:33N 34°38' E 135°23'2 2.3
2015-Feb-26 07:33N 34°36' E 135°24'0 0.0
2015-Feb-26 06:33N 34°36' E 135°24'0 0.0
2015-Feb-26 05:34N 34°36' E 135°24'0 0.0
2015-Feb-26 04:33N 34°36' E 135°24'2 1.8
2015-Feb-26 03:34N 34°38' E 135°25'2 1.8
2015-Feb-26 02:32N 34°38' E 135°23'1 1.4
2015-Feb-26 01:33N 34°37' E 135°23'4 4.4
2015-Feb-26 00:33N 34°33' E 135°27'0 0.0
2015-Feb-25 23:33N 34°33' E 135°27'0 0.0
2015-Feb-25 22:33N 34°33' E 135°27'2 0.1
2015-Feb-25 03:29N 34°33' E 135°25'3 3.4
2015-Feb-25 02:33N 34°36' E 135°24'1 0.5
2015-Feb-25 01:33N 34°36' E 135°24'0 0.0
2015-Feb-25 00:34N 34°36' E 135°24'0 0.0
2015-Feb-24 23:33N 34°36' E 135°24'3 2.6
2015-Feb-24 22:33N 34°33' E 135°23'2 2.1
2015-Feb-24 21:33N 34°33' E 135°26'1 0.6
2015-Feb-24 20:33N 34°33' E 135°27'0 0.0
2015-Feb-23 09:28N 34°33' E 135°27'5 5.4
2015-Feb-23 08:33N 34°38' E 135°24'2 1.6
2015-Feb-23 07:33N 34°36' E 135°24'0 0.0
2015-Feb-23 06:33N 34°36' E 135°24'0 0.0
2015-Feb-23 05:31N 34°36' E 135°24'3 3.6
2015-Feb-23 04:33N 34°39' E 135°25'5 5.1
2015-Feb-23 03:31N 34°34' E 135°24'2 1.6
2015-Feb-23 02:03N 34°33' E 135°27'0 0.0
2015-Feb-23 01:33N 34°33' E 135°27'0 0.0
2015-Feb-23 00:21N 34°33' E 135°27'0 0.0
2015-Feb-22 23:33N 34°33' E 135°27'0 0.0
2015-Feb-22 22:33N 34°33' E 135°27'1 0.0
2015-Feb-22 03:30N 34°33' E 135°26'0 0.2
2015-Feb-22 02:30N 34°33' E 135°26'1 0.6
2015-Feb-22 01:33N 34°33' E 135°27'0 0.0
2015-Feb-22 00:33N 34°33' E 135°27'4 2.8
2015-Feb-21 23:18N 34°31' E 135°23'1 1.8
2015-Feb-21 22:33N 34°32' E 135°23'3 1.5
2015-Feb-21 20:31N 34°33' E 135°27'0 0.0
2015-Feb-21 05:25N 34°33' E 135°27'5 5.2
2015-Feb-21 04:33N 34°33' E 135°21'3 3.1
2015-Feb-21 03:29N 34°34' E 135°25'0 0.2
2015-Feb-21 02:33N 34°34' E 135°25'0 0.1
2015-Feb-21 01:33N 34°34' E 135°25'0 0.2
2015-Feb-21 00:31N 34°33' E 135°25'0 0.1
2015-Feb-20 23:27N 34°33' E 135°25'0 0.1
2015-Feb-20 22:31N 34°34' E 135°25'0 0.2
2015-Feb-20 21:31N 34°33' E 135°25'0 0.1
2015-Feb-20 20:31N 34°33' E 135°25'0 0.0
2015-Feb-20 19:33N 34°33' E 135°25'0 0.1
2015-Feb-20 18:32N 34°33' E 135°25'0 0.1
2015-Feb-20 17:33N 34°33' E 135°25'0 0.0
2015-Feb-20 16:32N 34°33' E 135°25'0 0.0
2015-Feb-20 15:32N 34°33' E 135°25'0 0.0
2015-Feb-20 14:25N 34°33' E 135°25'0 0.0
2015-Feb-20 13:33N 34°33' E 135°25'0 0.0
2015-Feb-20 12:30N 34°33' E 135°25'0 0.1
2015-Feb-20 11:33N 34°33' E 135°25'0 0.1
2015-Feb-20 10:33N 34°33' E 135°25'0 0.1
2015-Feb-20 09:34N 34°33' E 135°25'0 0.1
2015-Feb-20 08:27N 34°33' E 135°25'0 0.0
2015-Feb-20 07:33N 34°33' E 135°25'  
Track history (hours):
 
Tides and Currents Weather Stations Pressure Air Temp Water Temp Dewpoint Dewpoint Depression Visibility Wind Speed Wind Dir Waves Ship Positions

Ryuhomaru

Last reported at 2015-Mar-02 07:13 UTC. Time now 2015-Mar-04 00:10 UTC.
Position N 34°33' E 135°27'.

Length 42 m; draft 3.5 m.

Type: Tug. MMSI: 431000586.

Date/timePositionNaut miles runAvg speedWind from/ knotsBaromVisibWave heightAir tempDewpointWater temp
2015-Mar-02 07:13N 34°33' E 135°27'0 0.0
2015-Mar-02 06:31N 34°33' E 135°27'0 0.0
2015-Mar-02 05:33N 34°33' E 135°27'0 0.0
2015-Mar-02 04:33N 34°33' E 135°27'0 0.0
2015-Mar-02 03:33N 34°33' E 135°27'0 0.0
2015-Mar-02 02:33N 34°33' E 135°27'0 0.2
2015-Mar-02 01:33N 34°33' E 135°26'2 1.7
2015-Mar-02 00:30N 34°34' E 135°24'2 2.4
2015-Mar-01 23:33N 34°36' E 135°24'1 0.6
2015-Mar-01 22:33N 34°35' E 135°24'3 2.4
2015-Mar-01 21:22N 34°33' E 135°25'1 1.1
2015-Mar-01 20:26N 34°33' E 135°27'0 0.0
2015-Mar-01 08:26N 34°33' E 135°27'2 2.5
2015-Mar-01 07:33N 34°34' E 135°24'0 0.2
2015-Mar-01 06:33N 34°34' E 135°24'2 0.5
2015-Mar-01 02:33N 34°33' E 135°27'3 2.5
2015-Mar-01 01:33N 34°32' E 135°24'0 0.4
2015-Mar-01 00:31N 34°32' E 135°24'2 1.8
2015-Feb-28 23:08N 34°33' E 135°27'0 0.0
2015-Feb-28 22:31N 34°33' E 135°27'0 0.0
2015-Feb-28 03:04N 34°33' E 135°27'2 3.3
2015-Feb-28 02:30N 34°34' E 135°24'0 0.0
2015-Feb-28 01:23N 34°34' E 135°24'4 4.3
2015-Feb-28 00:32N 34°33' E 135°20'0 0.1
2015-Feb-27 23:33N 34°33' E 135°20'5 4.6
2015-Feb-27 22:33N 34°33' E 135°26'0 0.3
2015-Feb-27 21:33N 34°33' E 135°26'1 0.7
2015-Feb-27 20:34N 34°33' E 135°27'2 0.1
2015-Feb-26 09:33N 34°34' E 135°24'5 4.6
2015-Feb-26 08:33N 34°38' E 135°23'2 2.3
2015-Feb-26 07:33N 34°36' E 135°24'0 0.0
2015-Feb-26 06:33N 34°36' E 135°24'0 0.0
2015-Feb-26 05:34N 34°36' E 135°24'0 0.0
2015-Feb-26 04:33N 34°36' E 135°24'2 1.8
2015-Feb-26 03:34N 34°38' E 135°25'2 1.8
2015-Feb-26 02:32N 34°38' E 135°23'1 1.4
2015-Feb-26 01:33N 34°37' E 135°23'4 4.4
2015-Feb-26 00:33N 34°33' E 135°27'0 0.0
2015-Feb-25 23:33N 34°33' E 135°27'0 0.0
2015-Feb-25 22:33N 34°33' E 135°27'2 0.1
2015-Feb-25 03:29N 34°33' E 135°25'3 3.4
2015-Feb-25 02:33N 34°36' E 135°24'1 0.5
2015-Feb-25 01:33N 34°36' E 135°24'0 0.0
2015-Feb-25 00:34N 34°36' E 135°24'0 0.0
2015-Feb-24 23:33N 34°36' E 135°24'3 2.6
2015-Feb-24 22:33N 34°33' E 135°23'2 2.1
2015-Feb-24 21:33N 34°33' E 135°26'1 0.6
2015-Feb-24 20:33N 34°33' E 135°27'0 0.0
2015-Feb-23 09:28N 34°33' E 135°27'5 5.4
2015-Feb-23 08:33N 34°38' E 135°24'2 1.6
2015-Feb-23 07:33N 34°36' E 135°24'0 0.0
2015-Feb-23 06:33N 34°36' E 135°24'0 0.0
2015-Feb-23 05:31N 34°36' E 135°24'3 3.6
2015-Feb-23 04:33N 34°39' E 135°25'5 5.1
2015-Feb-23 03:31N 34°34' E 135°24'2 1.6
2015-Feb-23 02:03N 34°33' E 135°27'0 0.0
2015-Feb-23 01:33N 34°33' E 135°27'0 0.0
2015-Feb-23 00:21N 34°33' E 135°27'0 0.0
2015-Feb-22 23:33N 34°33' E 135°27'0 0.0
2015-Feb-22 22:33N 34°33' E 135°27'1 0.0
2015-Feb-22 03:30N 34°33' E 135°26'0 0.2
2015-Feb-22 02:30N 34°33' E 135°26'1 0.6
2015-Feb-22 01:33N 34°33' E 135°27'0 0.0
2015-Feb-22 00:33N 34°33' E 135°27'4 2.8
2015-Feb-21 23:18N 34°31' E 135°23'1 1.8
2015-Feb-21 22:33N 34°32' E 135°23'3 1.5
2015-Feb-21 20:31N 34°33' E 135°27'0 0.0
2015-Feb-21 05:25N 34°33' E 135°27'5 5.2
2015-Feb-21 04:33N 34°33' E 135°21'3 3.1
2015-Feb-21 03:29N 34°34' E 135°25'0 0.2
2015-Feb-21 02:33N 34°34' E 135°25'0 0.1
2015-Feb-21 01:33N 34°34' E 135°25'0 0.2
2015-Feb-21 00:31N 34°33' E 135°25'0 0.1
2015-Feb-20 23:27N 34°33' E 135°25'0 0.1
2015-Feb-20 22:31N 34°34' E 135°25'0 0.2
2015-Feb-20 21:31N 34°33' E 135°25'0 0.1
2015-Feb-20 20:31N 34°33' E 135°25'0 0.0
2015-Feb-20 19:33N 34°33' E 135°25'0 0.1
2015-Feb-20 18:32N 34°33' E 135°25'0 0.1
2015-Feb-20 17:33N 34°33' E 135°25'0 0.0
2015-Feb-20 16:32N 34°33' E 135°25'0 0.0
2015-Feb-20 15:32N 34°33' E 135°25'0 0.0
2015-Feb-20 14:25N 34°33' E 135°25'0 0.0
2015-Feb-20 13:33N 34°33' E 135°25'0 0.0
2015-Feb-20 12:30N 34°33' E 135°25'0 0.1
2015-Feb-20 11:33N 34°33' E 135°25'0 0.1
2015-Feb-20 10:33N 34°33' E 135°25'0 0.1
2015-Feb-20 09:34N 34°33' E 135°25'0 0.1
2015-Feb-20 08:27N 34°33' E 135°25'0 0.0
2015-Feb-20 07:33N 34°33' E 135°25'  

Dump ship's entire track history